sensor_id;sensor_type;location;lat;lon;timestamp;P1;durP1;ratioP1;P2;durP2;ratioP2
5823;SDS011;2938;52.254;12.988;2022-09-09T00:01:23;8.05;;;6.57;;
5823;SDS011;2938;52.254;12.988;2022-09-09T00:03:57;18.63;;;6.70;;
5823;SDS011;2938;52.254;12.988;2022-09-09T00:06:30;11.88;;;6.53;;
5823;SDS011;2938;52.254;12.988;2022-09-09T00:09:13;7.53;;;5.60;;
5823;SDS011;2938;52.254;12.988;2022-09-09T00:14:51;6.72;;;5.88;;
5823;SDS011;2938;52.254;12.988;2022-09-09T00:25:51;7.18;;;6.45;;
5823;SDS011;2938;52.254;12.988;2022-09-09T00:28:20;6.95;;;5.88;;
5823;SDS011;2938;52.254;12.988;2022-09-09T00:30:48;7.57;;;6.88;;
5823;SDS011;2938;52.254;12.988;2022-09-09T00:33:13;8.23;;;7.38;;
5823;SDS011;2938;52.254;12.988;2022-09-09T00:35:47;8.75;;;6.65;;
5823;SDS011;2938;52.254;12.988;2022-09-09T00:38:15;7.65;;;6.90;;
5823;SDS011;2938;52.254;12.988;2022-09-09T00:43:34;8.15;;;7.32;;
5823;SDS011;2938;52.254;12.988;2022-09-09T00:54:38;20.30;;;11.25;;
5823;SDS011;2938;52.254;12.988;2022-09-09T01:08:59;10.18;;;8.27;;
5823;SDS011;2938;52.254;12.988;2022-09-09T01:11:05;11.38;;;9.10;;
5823;SDS011;2938;52.254;12.988;2022-09-09T01:13:35;16.73;;;10.25;;
5823;SDS011;2938;52.254;12.988;2022-09-09T01:16:01;9.90;;;8.90;;
5823;SDS011;2938;52.254;12.988;2022-09-09T01:18:30;10.57;;;8.68;;
5823;SDS011;2938;52.254;12.988;2022-09-09T01:26:47;8.88;;;7.97;;
5823;SDS011;2938;52.254;12.988;2022-09-09T01:29:16;10.70;;;8.25;;
5823;SDS011;2938;52.254;12.988;2022-09-09T01:31:59;9.13;;;7.65;;
5823;SDS011;2938;52.254;12.988;2022-09-09T01:34:33;14.40;;;7.97;;
5823;SDS011;2938;52.254;12.988;2022-09-09T01:37:10;8.30;;;7.45;;
5823;SDS011;2938;52.254;12.988;2022-09-09T01:39:37;8.88;;;7.43;;
5823;SDS011;2938;52.254;12.988;2022-09-09T01:42:04;9.63;;;8.65;;
5823;SDS011;2938;52.254;12.988;2022-09-09T01:44:32;11.90;;;7.47;;
5823;SDS011;2938;52.254;12.988;2022-09-09T01:47:00;8.30;;;7.22;;
5823;SDS011;2938;52.254;12.988;2022-09-09T01:49:26;11.90;;;7.68;;
5823;SDS011;2938;52.254;12.988;2022-09-09T01:51:52;10.70;;;8.20;;
5823;SDS011;2938;52.254;12.988;2022-09-09T01:54:19;9.85;;;6.75;;
5823;SDS011;2938;52.254;12.988;2022-09-09T02:00:04;8.85;;;7.57;;
5823;SDS011;2938;52.254;12.988;2022-09-09T02:08:52;15.18;;;8.30;;
5823;SDS011;2938;52.254;12.988;2022-09-09T02:11:21;9.27;;;8.23;;
5823;SDS011;2938;52.254;12.988;2022-09-09T02:13:48;16.35;;;10.05;;
5823;SDS011;2938;52.254;12.988;2022-09-09T02:16:24;14.65;;;9.65;;
5823;SDS011;2938;52.254;12.988;2022-09-09T02:18:56;13.90;;;9.68;;
5823;SDS011;2938;52.254;12.988;2022-09-09T02:21:26;11.50;;;9.75;;
5823;SDS011;2938;52.254;12.988;2022-09-09T02:23:53;14.50;;;9.23;;
5823;SDS011;2938;52.254;12.988;2022-09-09T02:26:21;12.73;;;11.23;;
5823;SDS011;2938;52.254;12.988;2022-09-09T02:28:48;19.85;;;10.88;;
5823;SDS011;2938;52.254;12.988;2022-09-09T02:31:16;13.32;;;10.75;;
5823;SDS011;2938;52.254;12.988;2022-09-09T02:33:44;14.15;;;10.30;;
5823;SDS011;2938;52.254;12.988;2022-09-09T02:36:13;18.90;;;11.80;;
5823;SDS011;2938;52.254;12.988;2022-09-09T02:38:42;16.10;;;10.73;;
5823;SDS011;2938;52.254;12.988;2022-09-09T02:41:11;13.60;;;10.85;;
5823;SDS011;2938;52.254;12.988;2022-09-09T02:43:36;11.43;;;10.15;;
5823;SDS011;2938;52.254;12.988;2022-09-09T02:46:12;16.45;;;11.57;;
5823;SDS011;2938;52.254;12.988;2022-09-09T02:51:24;13.83;;;9.40;;
5823;SDS011;2938;52.254;12.988;2022-09-09T02:56:43;12.38;;;10.38;;
5823;SDS011;2938;52.254;12.988;2022-09-09T02:59:12;11.80;;;9.52;;
5823;SDS011;2938;52.254;12.988;2022-09-09T03:01:38;10.95;;;9.23;;
5823;SDS011;2938;52.254;12.988;2022-09-09T03:04:05;9.38;;;8.48;;
5823;SDS011;2938;52.254;12.988;2022-09-09T03:06:30;12.30;;;9.00;;
5823;SDS011;2938;52.254;12.988;2022-09-09T03:08:56;11.20;;;7.55;;
5823;SDS011;2938;52.254;12.988;2022-09-09T03:11:25;14.30;;;9.50;;
5823;SDS011;2938;52.254;12.988;2022-09-09T03:13:52;14.52;;;9.60;;
5823;SDS011;2938;52.254;12.988;2022-09-09T03:16:17;13.07;;;10.45;;
5823;SDS011;2938;52.254;12.988;2022-09-09T03:18:43;9.27;;;7.47;;
5823;SDS011;2938;52.254;12.988;2022-09-09T03:21:10;13.23;;;9.38;;
5823;SDS011;2938;52.254;12.988;2022-09-09T03:23:36;11.40;;;9.13;;
5823;SDS011;2938;52.254;12.988;2022-09-09T03:26:01;13.77;;;9.57;;
5823;SDS011;2938;52.254;12.988;2022-09-09T03:28:27;13.18;;;10.82;;
5823;SDS011;2938;52.254;12.988;2022-09-09T03:30:59;16.02;;;8.13;;
5823;SDS011;2938;52.254;12.988;2022-09-09T03:33:25;10.48;;;8.40;;
5823;SDS011;2938;52.254;12.988;2022-09-09T03:35:51;12.80;;;9.25;;
5823;SDS011;2938;52.254;12.988;2022-09-09T03:38:16;11.18;;;8.15;;
5823;SDS011;2938;52.254;12.988;2022-09-09T03:40:48;8.55;;;7.65;;
5823;SDS011;2938;52.254;12.988;2022-09-09T03:43:22;15.48;;;7.82;;
5823;SDS011;2938;52.254;12.988;2022-09-09T03:45:48;9.05;;;8.13;;
5823;SDS011;2938;52.254;12.988;2022-09-09T03:48:14;12.57;;;7.50;;
5823;SDS011;2938;52.254;12.988;2022-09-09T03:50:43;10.27;;;7.90;;
5823;SDS011;2938;52.254;12.988;2022-09-09T03:53:10;11.27;;;7.63;;
5823;SDS011;2938;52.254;12.988;2022-09-09T03:55:35;11.18;;;7.72;;
5823;SDS011;2938;52.254;12.988;2022-09-09T03:58:01;9.13;;;8.00;;
5823;SDS011;2938;52.254;12.988;2022-09-09T04:00:26;12.98;;;8.93;;
5823;SDS011;2938;52.254;12.988;2022-09-09T04:02:51;9.93;;;8.20;;
5823;SDS011;2938;52.254;12.988;2022-09-09T04:05:19;12.80;;;9.02;;
5823;SDS011;2938;52.254;12.988;2022-09-09T04:07:44;10.40;;;8.07;;
5823;SDS011;2938;52.254;12.988;2022-09-09T04:10:09;7.95;;;7.15;;
5823;SDS011;2938;52.254;12.988;2022-09-09T04:12:35;18.58;;;8.60;;
5823;SDS011;2938;52.254;12.988;2022-09-09T04:15:00;11.18;;;8.23;;
5823;SDS011;2938;52.254;12.988;2022-09-09T04:17:27;20.42;;;7.93;;
5823;SDS011;2938;52.254;12.988;2022-09-09T04:19:52;13.77;;;8.48;;
5823;SDS011;2938;52.254;12.988;2022-09-09T04:22:18;9.30;;;7.65;;
5823;SDS011;2938;52.254;12.988;2022-09-09T04:24:43;9.75;;;8.23;;
5823;SDS011;2938;52.254;12.988;2022-09-09T04:27:08;18.33;;;8.27;;
5823;SDS011;2938;52.254;12.988;2022-09-09T04:29:34;16.33;;;8.43;;
5823;SDS011;2938;52.254;12.988;2022-09-09T04:31:59;13.38;;;7.82;;
5823;SDS011;2938;52.254;12.988;2022-09-09T04:34:25;9.50;;;8.50;;
5823;SDS011;2938;52.254;12.988;2022-09-09T04:36:50;8.63;;;7.68;;
5823;SDS011;2938;52.254;12.988;2022-09-09T04:39:16;9.85;;;6.55;;
5823;SDS011;2938;52.254;12.988;2022-09-09T04:41:42;10.10;;;7.45;;
5823;SDS011;2938;52.254;12.988;2022-09-09T04:44:07;14.43;;;8.73;;
5823;SDS011;2938;52.254;12.988;2022-09-09T04:46:33;11.48;;;8.88;;
5823;SDS011;2938;52.254;12.988;2022-09-09T04:48:59;10.82;;;8.02;;
5823;SDS011;2938;52.254;12.988;2022-09-09T04:51:24;7.90;;;6.20;;
5823;SDS011;2938;52.254;12.988;2022-09-09T04:53:50;9.25;;;7.45;;
5823;SDS011;2938;52.254;12.988;2022-09-09T04:56:16;11.25;;;7.13;;
5823;SDS011;2938;52.254;12.988;2022-09-09T04:58:42;11.73;;;7.30;;
5823;SDS011;2938;52.254;12.988;2022-09-09T05:01:09;8.55;;;6.70;;
5823;SDS011;2938;52.254;12.988;2022-09-09T05:03:36;10.85;;;7.82;;
5823;SDS011;2938;52.254;12.988;2022-09-09T05:06:09;11.90;;;6.55;;
5823;SDS011;2938;52.254;12.988;2022-09-09T05:08:36;11.75;;;7.55;;
5823;SDS011;2938;52.254;12.988;2022-09-09T05:11:03;14.55;;;7.65;;
5823;SDS011;2938;52.254;12.988;2022-09-09T05:13:29;10.32;;;7.80;;
5823;SDS011;2938;52.254;12.988;2022-09-09T05:15:57;14.93;;;7.90;;
5823;SDS011;2938;52.254;12.988;2022-09-09T05:18:23;7.72;;;6.35;;
5823;SDS011;2938;52.254;12.988;2022-09-09T05:20:52;10.13;;;6.63;;
5823;SDS011;2938;52.254;12.988;2022-09-09T05:23:22;9.55;;;6.90;;
5823;SDS011;2938;52.254;12.988;2022-09-09T05:25:54;12.27;;;6.82;;
5823;SDS011;2938;52.254;12.988;2022-09-09T05:28:21;9.85;;;8.52;;
5823;SDS011;2938;52.254;12.988;2022-09-09T05:30:54;6.88;;;5.78;;
5823;SDS011;2938;52.254;12.988;2022-09-09T05:33:20;11.98;;;7.22;;
5823;SDS011;2938;52.254;12.988;2022-09-09T05:35:46;5.68;;;5.15;;
5823;SDS011;2938;52.254;12.988;2022-09-09T05:38:11;9.38;;;6.15;;
5823;SDS011;2938;52.254;12.988;2022-09-09T05:40:37;11.73;;;6.70;;
5823;SDS011;2938;52.254;12.988;2022-09-09T05:43:02;9.18;;;5.47;;
5823;SDS011;2938;52.254;12.988;2022-09-09T05:45:28;8.70;;;4.80;;
5823;SDS011;2938;52.254;12.988;2022-09-09T05:47:53;4.68;;;4.28;;
5823;SDS011;2938;52.254;12.988;2022-09-09T05:50:19;9.48;;;4.30;;
5823;SDS011;2938;52.254;12.988;2022-09-09T05:52:45;5.28;;;3.83;;
5823;SDS011;2938;52.254;12.988;2022-09-09T05:55:10;7.07;;;3.20;;
5823;SDS011;2938;52.254;12.988;2022-09-09T05:57:36;3.90;;;3.50;;
5823;SDS011;2938;52.254;12.988;2022-09-09T06:00:01;15.32;;;3.72;;
5823;SDS011;2938;52.254;12.988;2022-09-09T06:02:27;4.90;;;3.30;;
5823;SDS011;2938;52.254;12.988;2022-09-09T06:04:53;4.05;;;3.38;;
5823;SDS011;2938;52.254;12.988;2022-09-09T06:07:18;7.28;;;3.95;;
5823;SDS011;2938;52.254;12.988;2022-09-09T06:09:43;7.97;;;4.13;;
5823;SDS011;2938;52.254;12.988;2022-09-09T06:12:09;9.95;;;4.15;;
5823;SDS011;2938;52.254;12.988;2022-09-09T06:14:34;4.75;;;4.22;;
5823;SDS011;2938;52.254;12.988;2022-09-09T06:17:00;7.32;;;4.60;;
5823;SDS011;2938;52.254;12.988;2022-09-09T06:19:26;6.72;;;3.53;;
5823;SDS011;2938;52.254;12.988;2022-09-09T06:21:51;6.50;;;4.15;;
5823;SDS011;2938;52.254;12.988;2022-09-09T06:24:17;11.77;;;4.68;;
5823;SDS011;2938;52.254;12.988;2022-09-09T06:26:44;5.00;;;4.15;;
5823;SDS011;2938;52.254;12.988;2022-09-09T06:29:10;5.15;;;3.67;;
5823;SDS011;2938;52.254;12.988;2022-09-09T06:31:35;6.30;;;5.00;;
5823;SDS011;2938;52.254;12.988;2022-09-09T06:34:02;4.63;;;4.00;;
5823;SDS011;2938;52.254;12.988;2022-09-09T06:36:33;6.32;;;4.18;;
5823;SDS011;2938;52.254;12.988;2022-09-09T06:38:59;8.75;;;4.28;;
5823;SDS011;2938;52.254;12.988;2022-09-09T06:41:26;4.70;;;3.95;;
5823;SDS011;2938;52.254;12.988;2022-09-09T06:43:53;5.53;;;3.63;;
5823;SDS011;2938;52.254;12.988;2022-09-09T06:46:22;6.85;;;4.50;;
5823;SDS011;2938;52.254;12.988;2022-09-09T06:48:52;5.43;;;3.92;;
5823;SDS011;2938;52.254;12.988;2022-09-09T06:51:20;4.60;;;3.78;;
5823;SDS011;2938;52.254;12.988;2022-09-09T06:53:47;3.47;;;3.17;;
5823;SDS011;2938;52.254;12.988;2022-09-09T06:58:52;5.93;;;3.67;;
5823;SDS011;2938;52.254;12.988;2022-09-09T07:01:19;9.15;;;4.32;;
5823;SDS011;2938;52.254;12.988;2022-09-09T07:03:47;4.00;;;2.75;;
5823;SDS011;2938;52.254;12.988;2022-09-09T07:06:15;4.45;;;2.55;;
5823;SDS011;2938;52.254;12.988;2022-09-09T07:08:42;3.45;;;3.15;;
5823;SDS011;2938;52.254;12.988;2022-09-09T07:11:08;6.82;;;2.85;;
5823;SDS011;2938;52.254;12.988;2022-09-09T07:13:34;5.22;;;2.97;;
5823;SDS011;2938;52.254;12.988;2022-09-09T07:16:06;11.32;;;3.20;;
5823;SDS011;2938;52.254;12.988;2022-09-09T07:18:36;5.25;;;2.92;;
5823;SDS011;2938;52.254;12.988;2022-09-09T07:21:02;8.73;;;2.72;;
5823;SDS011;2938;52.254;12.988;2022-09-09T07:23:28;5.00;;;2.92;;
5823;SDS011;2938;52.254;12.988;2022-09-09T07:25:54;13.27;;;5.60;;
5823;SDS011;2938;52.254;12.988;2022-09-09T07:28:20;11.10;;;3.65;;
5823;SDS011;2938;52.254;12.988;2022-09-09T07:30:53;7.43;;;2.97;;
5823;SDS011;2938;52.254;12.988;2022-09-09T07:33:19;3.90;;;2.53;;
5823;SDS011;2938;52.254;12.988;2022-09-09T07:35:45;9.18;;;3.15;;
5823;SDS011;2938;52.254;12.988;2022-09-09T07:38:10;4.57;;;2.33;;
5823;SDS011;2938;52.254;12.988;2022-09-09T07:40:36;6.72;;;2.88;;
5823;SDS011;2938;52.254;12.988;2022-09-09T07:43:01;7.63;;;3.78;;
5823;SDS011;2938;52.254;12.988;2022-09-09T07:45:27;2.80;;;2.58;;
5823;SDS011;2938;52.254;12.988;2022-09-09T07:47:58;3.70;;;2.00;;
5823;SDS011;2938;52.254;12.988;2022-09-09T07:50:23;5.45;;;2.78;;
5823;SDS011;2938;52.254;12.988;2022-09-09T07:52:50;4.47;;;2.80;;
5823;SDS011;2938;52.254;12.988;2022-09-09T07:55:22;8.05;;;2.47;;
5823;SDS011;2938;52.254;12.988;2022-09-09T07:57:50;5.60;;;2.30;;
5823;SDS011;2938;52.254;12.988;2022-09-09T08:00:16;8.38;;;2.67;;
5823;SDS011;2938;52.254;12.988;2022-09-09T08:02:41;3.60;;;1.92;;
5823;SDS011;2938;52.254;12.988;2022-09-09T08:05:07;4.03;;;2.90;;
5823;SDS011;2938;52.254;12.988;2022-09-09T08:07:32;6.47;;;2.70;;
5823;SDS011;2938;52.254;12.988;2022-09-09T08:09:57;8.82;;;2.72;;
5823;SDS011;2938;52.254;12.988;2022-09-09T08:12:23;6.05;;;2.03;;
5823;SDS011;2938;52.254;12.988;2022-09-09T08:14:48;7.43;;;2.72;;
5823;SDS011;2938;52.254;12.988;2022-09-09T08:17:14;5.75;;;2.50;;
5823;SDS011;2938;52.254;12.988;2022-09-09T08:19:39;8.88;;;2.60;;
5823;SDS011;2938;52.254;12.988;2022-09-09T08:22:05;3.15;;;2.58;;
5823;SDS011;2938;52.254;12.988;2022-09-09T08:24:30;4.10;;;2.28;;
5823;SDS011;2938;52.254;12.988;2022-09-09T08:26:56;10.45;;;3.67;;
5823;SDS011;2938;52.254;12.988;2022-09-09T08:29:22;11.63;;;3.50;;
5823;SDS011;2938;52.254;12.988;2022-09-09T08:34:19;14.63;;;2.80;;
5823;SDS011;2938;52.254;12.988;2022-09-09T08:36:45;7.43;;;2.75;;
5823;SDS011;2938;52.254;12.988;2022-09-09T08:39:13;7.47;;;3.05;;
5823;SDS011;2938;52.254;12.988;2022-09-09T08:52:41;10.35;;;3.55;;
5823;SDS011;2938;52.254;12.988;2022-09-09T08:58:11;4.65;;;2.20;;
5823;SDS011;2938;52.254;12.988;2022-09-09T09:00:45;4.90;;;1.80;;
5823;SDS011;2938;52.254;12.988;2022-09-09T09:03:26;10.63;;;2.35;;
5823;SDS011;2938;52.254;12.988;2022-09-09T09:06:08;8.63;;;2.30;;
5823;SDS011;2938;52.254;12.988;2022-09-09T09:08:47;5.18;;;2.03;;
5823;SDS011;2938;52.254;12.988;2022-09-09T09:11:38;9.05;;;1.80;;
5823;SDS011;2938;52.254;12.988;2022-09-09T09:14:14;3.90;;;2.10;;
5823;SDS011;2938;52.254;12.988;2022-09-09T09:19:16;5.45;;;1.85;;
5823;SDS011;2938;52.254;12.988;2022-09-09T09:21:44;4.65;;;1.60;;
5823;SDS011;2938;52.254;12.988;2022-09-09T09:24:14;3.65;;;1.55;;
5823;SDS011;2938;52.254;12.988;2022-09-09T09:26:42;3.50;;;1.40;;
5823;SDS011;2938;52.254;12.988;2022-09-09T09:29:10;3.53;;;1.55;;
5823;SDS011;2938;52.254;12.988;2022-09-09T09:31:37;1.65;;;1.55;;
5823;SDS011;2938;52.254;12.988;2022-09-09T09:34:03;3.65;;;1.70;;
5823;SDS011;2938;52.254;12.988;2022-09-09T09:36:37;16.95;;;2.83;;
5823;SDS011;2938;52.254;12.988;2022-09-09T09:39:06;4.45;;;2.42;;
5823;SDS011;2938;52.254;12.988;2022-09-09T09:41:38;4.18;;;1.80;;
5823;SDS011;2938;52.254;12.988;2022-09-09T09:44:06;2.90;;;1.40;;
5823;SDS011;2938;52.254;12.988;2022-09-09T09:46:47;2.67;;;1.48;;
5823;SDS011;2938;52.254;12.988;2022-09-09T09:49:12;5.53;;;1.95;;
5823;SDS011;2938;52.254;12.988;2022-09-09T09:51:38;3.75;;;1.75;;
5823;SDS011;2938;52.254;12.988;2022-09-09T09:56:43;9.43;;;2.47;;
5823;SDS011;2938;52.254;12.988;2022-09-09T10:01:53;2.75;;;1.50;;
5823;SDS011;2938;52.254;12.988;2022-09-09T10:04:19;5.18;;;2.70;;
5823;SDS011;2938;52.254;12.988;2022-09-09T10:06:46;2.00;;;1.00;;
5823;SDS011;2938;52.254;12.988;2022-09-09T10:09:20;8.07;;;2.10;;
5823;SDS011;2938;52.254;12.988;2022-09-09T10:15:04;8.02;;;1.48;;
5823;SDS011;2938;52.254;12.988;2022-09-09T10:17:54;5.95;;;1.70;;
5823;SDS011;2938;52.254;12.988;2022-09-09T10:31:17;4.35;;;1.73;;
5823;SDS011;2938;52.254;12.988;2022-09-09T10:36:38;3.95;;;2.20;;
5823;SDS011;2938;52.254;12.988;2022-09-09T10:42:12;5.53;;;1.73;;
5823;SDS011;2938;52.254;12.988;2022-09-09T10:45:25;2.67;;;1.40;;
5823;SDS011;2938;52.254;12.988;2022-09-09T10:47:43;9.30;;;2.13;;
5823;SDS011;2938;52.254;12.988;2022-09-09T10:56:07;3.70;;;1.33;;
5823;SDS011;2938;52.254;12.988;2022-09-09T10:58:47;5.53;;;1.75;;
5823;SDS011;2938;52.254;12.988;2022-09-09T11:03:49;5.03;;;1.10;;
5823;SDS011;2938;52.254;12.988;2022-09-09T11:06:19;5.85;;;2.38;;
5823;SDS011;2938;52.254;12.988;2022-09-09T11:08:46;4.13;;;1.45;;
5823;SDS011;2938;52.254;12.988;2022-09-09T11:14:03;4.57;;;2.28;;
5823;SDS011;2938;52.254;12.988;2022-09-09T11:21:56;7.75;;;1.75;;
5823;SDS011;2938;52.254;12.988;2022-09-09T11:24:25;6.88;;;2.33;;
5823;SDS011;2938;52.254;12.988;2022-09-09T11:40:19;4.88;;;2.25;;
5823;SDS011;2938;52.254;12.988;2022-09-09T11:42:49;5.20;;;1.83;;
5823;SDS011;2938;52.254;12.988;2022-09-09T11:45:26;2.97;;;1.27;;
5823;SDS011;2938;52.254;12.988;2022-09-09T11:47:57;5.75;;;1.90;;
5823;SDS011;2938;52.254;12.988;2022-09-09T11:50:30;7.43;;;2.53;;
5823;SDS011;2938;52.254;12.988;2022-09-09T11:53:05;3.95;;;1.77;;
5823;SDS011;2938;52.254;12.988;2022-09-09T11:55:45;3.65;;;1.98;;
5823;SDS011;2938;52.254;12.988;2022-09-09T12:00:37;10.40;;;1.97;;
5823;SDS011;2938;52.254;12.988;2022-09-09T12:03:05;3.72;;;1.45;;
5823;SDS011;2938;52.254;12.988;2022-09-09T12:06:08;6.07;;;1.77;;
5823;SDS011;2938;52.254;12.988;2022-09-09T12:08:26;9.55;;;1.38;;
5823;SDS011;2938;52.254;12.988;2022-09-09T12:10:56;4.85;;;1.33;;
5823;SDS011;2938;52.254;12.988;2022-09-09T12:13:25;7.43;;;1.75;;
5823;SDS011;2938;52.254;12.988;2022-09-09T12:15:58;5.68;;;1.50;;
5823;SDS011;2938;52.254;12.988;2022-09-09T12:24:09;10.68;;;2.83;;
5823;SDS011;2938;52.254;12.988;2022-09-09T12:26:37;6.68;;;1.42;;
5823;SDS011;2938;52.254;12.988;2022-09-09T12:29:12;5.57;;;1.63;;
5823;SDS011;2938;52.254;12.988;2022-09-09T12:34:39;3.95;;;2.00;;
5823;SDS011;2938;52.254;12.988;2022-09-09T12:37:56;5.07;;;2.20;;
5823;SDS011;2938;52.254;12.988;2022-09-09T12:42:30;5.07;;;2.10;;
5823;SDS011;2938;52.254;12.988;2022-09-09T12:45:02;6.68;;;2.85;;
5823;SDS011;2938;52.254;12.988;2022-09-09T12:47:39;9.27;;;1.80;;
5823;SDS011;2938;52.254;12.988;2022-09-09T12:52:52;4.20;;;1.60;;
5823;SDS011;2938;52.254;12.988;2022-09-09T12:55:21;6.43;;;1.60;;
5823;SDS011;2938;52.254;12.988;2022-09-09T12:57:50;4.43;;;1.58;;
5823;SDS011;2938;52.254;12.988;2022-09-09T13:00:16;9.32;;;1.80;;
5823;SDS011;2938;52.254;12.988;2022-09-09T13:05:21;5.65;;;1.77;;
5823;SDS011;2938;52.254;12.988;2022-09-09T13:07:51;4.38;;;1.80;;
5823;SDS011;2938;52.254;12.988;2022-09-09T13:10:26;3.13;;;1.77;;
5823;SDS011;2938;52.254;12.988;2022-09-09T13:12:53;3.13;;;1.45;;
5823;SDS011;2938;52.254;12.988;2022-09-09T13:15:20;4.72;;;1.50;;
5823;SDS011;2938;52.254;12.988;2022-09-09T13:17:51;7.40;;;1.77;;
5823;SDS011;2938;52.254;12.988;2022-09-09T13:20:18;6.78;;;2.08;;
5823;SDS011;2938;52.254;12.988;2022-09-09T13:22:44;5.93;;;1.73;;
5823;SDS011;2938;52.254;12.988;2022-09-09T13:27:37;3.63;;;1.35;;
5823;SDS011;2938;52.254;12.988;2022-09-09T13:33:17;3.10;;;1.30;;
5823;SDS011;2938;52.254;12.988;2022-09-09T13:35:49;5.65;;;2.15;;
5823;SDS011;2938;52.254;12.988;2022-09-09T13:38:18;4.32;;;1.73;;
5823;SDS011;2938;52.254;12.988;2022-09-09T13:43:52;6.30;;;1.65;;
5823;SDS011;2938;52.254;12.988;2022-09-09T13:46:36;6.05;;;1.70;;
5823;SDS011;2938;52.254;12.988;2022-09-09T13:51:39;9.95;;;3.03;;
5823;SDS011;2938;52.254;12.988;2022-09-09T13:54:08;2.25;;;1.85;;
5823;SDS011;2938;52.254;12.988;2022-09-09T13:56:35;8.15;;;1.17;;
5823;SDS011;2938;52.254;12.988;2022-09-09T13:59:02;3.80;;;1.25;;
5823;SDS011;2938;52.254;12.988;2022-09-09T14:01:29;5.85;;;2.20;;
5823;SDS011;2938;52.254;12.988;2022-09-09T14:06:23;6.32;;;1.75;;
5823;SDS011;2938;52.254;12.988;2022-09-09T14:08:49;8.63;;;2.15;;
5823;SDS011;2938;52.254;12.988;2022-09-09T14:11:15;3.85;;;1.77;;
5823;SDS011;2938;52.254;12.988;2022-09-09T14:13:40;2.80;;;1.27;;
5823;SDS011;2938;52.254;12.988;2022-09-09T14:16:06;4.38;;;1.83;;
5823;SDS011;2938;52.254;12.988;2022-09-09T14:18:31;7.82;;;2.20;;
5823;SDS011;2938;52.254;12.988;2022-09-09T14:20:57;10.98;;;1.60;;
5823;SDS011;2938;52.254;12.988;2022-09-09T14:23:23;7.40;;;2.22;;
5823;SDS011;2938;52.254;12.988;2022-09-09T14:25:49;4.47;;;1.63;;
5823;SDS011;2938;52.254;12.988;2022-09-09T14:28:14;3.40;;;1.70;;
5823;SDS011;2938;52.254;12.988;2022-09-09T14:30:40;2.85;;;1.85;;
5823;SDS011;2938;52.254;12.988;2022-09-09T14:33:07;3.58;;;1.30;;
5823;SDS011;2938;52.254;12.988;2022-09-09T14:35:33;5.07;;;1.70;;
5823;SDS011;2938;52.254;12.988;2022-09-09T14:37:59;5.43;;;1.88;;
5823;SDS011;2938;52.254;12.988;2022-09-09T14:40:26;2.22;;;1.33;;
5823;SDS011;2938;52.254;12.988;2022-09-09T14:42:52;4.63;;;1.67;;
5823;SDS011;2938;52.254;12.988;2022-09-09T14:45:17;10.93;;;1.60;;
5823;SDS011;2938;52.254;12.988;2022-09-09T14:47:43;3.33;;;2.08;;
5823;SDS011;2938;52.254;12.988;2022-09-09T14:50:10;6.32;;;2.45;;
5823;SDS011;2938;52.254;12.988;2022-09-09T14:52:37;3.72;;;1.35;;
5823;SDS011;2938;52.254;12.988;2022-09-09T14:55:03;10.02;;;2.80;;
5823;SDS011;2938;52.254;12.988;2022-09-09T14:57:29;6.20;;;2.03;;
5823;SDS011;2938;52.254;12.988;2022-09-09T14:59:56;5.78;;;1.90;;
5823;SDS011;2938;52.254;12.988;2022-09-09T15:02:21;11.13;;;2.05;;
5823;SDS011;2938;52.254;12.988;2022-09-09T15:04:47;5.28;;;1.42;;
5823;SDS011;2938;52.254;12.988;2022-09-09T15:07:14;5.90;;;1.63;;
5823;SDS011;2938;52.254;12.988;2022-09-09T15:09:40;5.38;;;2.00;;
5823;SDS011;2938;52.254;12.988;2022-09-09T15:12:05;5.30;;;1.67;;
5823;SDS011;2938;52.254;12.988;2022-09-09T15:14:31;8.52;;;1.92;;
5823;SDS011;2938;52.254;12.988;2022-09-09T15:16:56;6.00;;;1.42;;
5823;SDS011;2938;52.254;12.988;2022-09-09T15:19:22;5.03;;;2.00;;
5823;SDS011;2938;52.254;12.988;2022-09-09T15:21:47;4.32;;;1.60;;
5823;SDS011;2938;52.254;12.988;2022-09-09T15:24:14;6.57;;;1.60;;
5823;SDS011;2938;52.254;12.988;2022-09-09T15:26:41;3.83;;;1.13;;
5823;SDS011;2938;52.254;12.988;2022-09-09T15:29:06;3.55;;;1.45;;
5823;SDS011;2938;52.254;12.988;2022-09-09T15:31:38;5.50;;;1.63;;
5823;SDS011;2938;52.254;12.988;2022-09-09T15:34:04;7.55;;;1.45;;
5823;SDS011;2938;52.254;12.988;2022-09-09T15:36:34;4.07;;;1.77;;
5823;SDS011;2938;52.254;12.988;2022-09-09T15:39:02;1.92;;;1.55;;
5823;SDS011;2938;52.254;12.988;2022-09-09T15:41:29;3.22;;;1.75;;
5823;SDS011;2938;52.254;12.988;2022-09-09T15:43:56;5.25;;;1.25;;
5823;SDS011;2938;52.254;12.988;2022-09-09T15:46:23;8.25;;;1.60;;
5823;SDS011;2938;52.254;12.988;2022-09-09T15:48:55;6.97;;;1.35;;
5823;SDS011;2938;52.254;12.988;2022-09-09T15:51:23;5.40;;;1.80;;
5823;SDS011;2938;52.254;12.988;2022-09-09T15:53:56;2.88;;;1.38;;
5823;SDS011;2938;52.254;12.988;2022-09-09T15:56:29;2.53;;;1.15;;
5823;SDS011;2938;52.254;12.988;2022-09-09T15:58:57;2.47;;;1.52;;
5823;SDS011;2938;52.254;12.988;2022-09-09T16:01:26;2.67;;;1.20;;
5823;SDS011;2938;52.254;12.988;2022-09-09T16:03:53;8.15;;;1.95;;
5823;SDS011;2938;52.254;12.988;2022-09-09T16:06:19;4.95;;;1.45;;
5823;SDS011;2938;52.254;12.988;2022-09-09T16:08:47;2.63;;;1.52;;
5823;SDS011;2938;52.254;12.988;2022-09-09T16:11:26;4.20;;;1.13;;
5823;SDS011;2938;52.254;12.988;2022-09-09T16:13:53;2.17;;;1.10;;
5823;SDS011;2938;52.254;12.988;2022-09-09T16:16:21;7.38;;;1.42;;
5823;SDS011;2938;52.254;12.988;2022-09-09T16:18:50;4.80;;;1.65;;
5823;SDS011;2938;52.254;12.988;2022-09-09T16:21:25;5.80;;;1.50;;
5823;SDS011;2938;52.254;12.988;2022-09-09T16:23:53;4.20;;;1.38;;
5823;SDS011;2938;52.254;12.988;2022-09-09T16:26:18;5.47;;;1.67;;
5823;SDS011;2938;52.254;12.988;2022-09-09T16:28:45;1.90;;;1.33;;
5823;SDS011;2938;52.254;12.988;2022-09-09T16:31:15;10.43;;;2.25;;
5823;SDS011;2938;52.254;12.988;2022-09-09T16:33:42;5.43;;;1.80;;
5823;SDS011;2938;52.254;12.988;2022-09-09T16:36:08;2.08;;;1.20;;
5823;SDS011;2938;52.254;12.988;2022-09-09T16:38:38;5.82;;;1.50;;
5823;SDS011;2938;52.254;12.988;2022-09-09T16:41:04;4.47;;;1.70;;
5823;SDS011;2938;52.254;12.988;2022-09-09T16:43:30;6.88;;;1.38;;
5823;SDS011;2938;52.254;12.988;2022-09-09T16:45:56;7.32;;;1.92;;
5823;SDS011;2938;52.254;12.988;2022-09-09T16:48:22;5.22;;;1.90;;
5823;SDS011;2938;52.254;12.988;2022-09-09T16:50:47;12.80;;;1.35;;
5823;SDS011;2938;52.254;12.988;2022-09-09T16:53:13;6.15;;;1.45;;
5823;SDS011;2938;52.254;12.988;2022-09-09T16:55:40;5.40;;;1.80;;
5823;SDS011;2938;52.254;12.988;2022-09-09T16:58:07;8.18;;;1.63;;
5823;SDS011;2938;52.254;12.988;2022-09-09T17:00:33;8.35;;;2.10;;
5823;SDS011;2938;52.254;12.988;2022-09-09T17:02:59;4.30;;;1.90;;
5823;SDS011;2938;52.254;12.988;2022-09-09T17:05:25;3.58;;;2.03;;
5823;SDS011;2938;52.254;12.988;2022-09-09T17:07:50;6.82;;;2.10;;
5823;SDS011;2938;52.254;12.988;2022-09-09T17:10:16;3.97;;;1.58;;
5823;SDS011;2938;52.254;12.988;2022-09-09T17:12:42;6.72;;;2.30;;
5823;SDS011;2938;52.254;12.988;2022-09-09T17:15:07;8.55;;;1.88;;
5823;SDS011;2938;52.254;12.988;2022-09-09T17:17:34;7.38;;;3.10;;
5823;SDS011;2938;52.254;12.988;2022-09-09T17:19:59;9.18;;;3.17;;
5823;SDS011;2938;52.254;12.988;2022-09-09T17:22:26;9.38;;;1.92;;
5823;SDS011;2938;52.254;12.988;2022-09-09T17:24:54;4.00;;;2.47;;
5823;SDS011;2938;52.254;12.988;2022-09-09T17:27:20;4.15;;;1.65;;
5823;SDS011;2938;52.254;12.988;2022-09-09T17:29:46;4.85;;;1.90;;
5823;SDS011;2938;52.254;12.988;2022-09-09T17:32:16;5.35;;;1.52;;
5823;SDS011;2938;52.254;12.988;2022-09-09T17:34:41;6.68;;;2.00;;
5823;SDS011;2938;52.254;12.988;2022-09-09T17:37:07;5.70;;;2.30;;
5823;SDS011;2938;52.254;12.988;2022-09-09T17:39:33;8.52;;;1.90;;
5823;SDS011;2938;52.254;12.988;2022-09-09T17:41:58;8.30;;;3.95;;
5823;SDS011;2938;52.254;12.988;2022-09-09T17:44:24;4.90;;;1.98;;
5823;SDS011;2938;52.254;12.988;2022-09-09T17:46:49;3.03;;;1.90;;
5823;SDS011;2938;52.254;12.988;2022-09-09T17:49:15;5.72;;;2.13;;